createdAt,value
2018-02-23T00:00:45.681Z,47.20
2018-02-23T00:03:12.825Z,47.70
2018-02-23T00:05:40.623Z,47.50
2018-02-23T00:08:07.602Z,47.50
2018-02-23T00:10:34.574Z,47.50
2018-02-23T00:13:01.549Z,47.60
2018-02-23T00:15:29.291Z,47.70
2018-02-23T00:17:56.303Z,47.60
2018-02-23T00:20:23.280Z,47.80
2018-02-23T00:22:50.356Z,48.10
2018-02-23T00:25:17.351Z,47.70
2018-02-23T00:27:44.322Z,47.80
2018-02-23T00:30:11.324Z,47.90
2018-02-23T00:32:38.383Z,48.40
2018-02-23T00:35:05.363Z,48.40
2018-02-23T00:37:32.327Z,48.50
2018-02-23T00:39:59.307Z,48.70
2018-02-23T00:42:27.042Z,48.50
2018-02-23T00:44:54.032Z,48.40
2018-02-23T00:47:21.056Z,48.40
2018-02-23T00:49:48.110Z,48.30
2018-02-23T00:52:15.180Z,48.20
2018-02-23T00:54:42.159Z,48.50
2018-02-23T00:57:09.186Z,48.30
2018-02-23T00:59:36.254Z,48.40
2018-02-23T01:02:03.230Z,48.20
2018-02-23T01:04:30.203Z,48.00
2018-02-23T01:06:57.176Z,48.30
2018-02-23T01:09:24.191Z,47.90
2018-02-23T01:11:51.223Z,48.00
2018-02-23T01:14:18.207Z,47.80
2018-02-23T01:16:45.269Z,47.60
2018-02-23T01:19:12.240Z,47.70
2018-02-23T01:21:39.290Z,47.80
2018-02-23T01:24:06.272Z,47.50
2018-02-23T01:26:33.295Z,47.70
2018-02-23T01:29:00.362Z,47.80
2018-02-23T01:31:27.424Z,48.00
2018-02-23T01:33:54.395Z,47.50
2018-02-23T01:36:21.435Z,47.80
2018-02-23T01:38:48.506Z,47.50
2018-02-23T01:41:15.569Z,47.50
2018-02-23T01:43:42.539Z,47.10
2018-02-23T01:46:09.579Z,47.00
2018-02-23T01:48:36.639Z,47.10
2018-02-23T01:51:03.610Z,47.10
2018-02-23T01:53:30.587Z,47.20
2018-02-23T01:55:57.568Z,47.20
2018-02-23T01:58:25.303Z,47.80
2018-02-23T02:00:52.354Z,47.80
2018-02-23T02:03:19.319Z,48.00
2018-02-23T02:05:46.296Z,47.80
2018-02-23T02:08:13.323Z,48.00
2018-02-23T02:10:40.491Z,48.30
2018-02-23T02:13:07.460Z,48.20
2018-02-23T02:15:34.498Z,48.30
2018-02-23T02:18:01.568Z,48.40
2018-02-23T02:20:28.544Z,48.10
2018-02-23T02:22:55.510Z,48.40
2018-02-23T02:25:23.263Z,48.80
2018-02-23T02:27:50.320Z,48.90
2018-02-23T02:30:17.380Z,49.10
2018-02-23T02:32:44.362Z,49.20
2018-02-23T02:35:11.378Z,49.30
2018-02-23T02:37:39.176Z,49.50
2018-02-23T02:40:06.161Z,49.50
2018-02-23T02:42:33.139Z,49.30
2018-02-23T02:45:00.887Z,49.40
2018-02-23T02:47:27.931Z,49.40
2018-02-23T02:49:54.906Z,49.50
2018-02-23T02:52:21.906Z,49.70
2018-02-23T02:54:49.719Z,49.50
2018-02-23T02:57:16.784Z,49.30
2018-02-23T02:59:43.755Z,49.60
2018-02-23T03:02:10.802Z,49.70
2018-02-23T03:04:37.772Z,49.50
2018-02-23T03:07:04.755Z,49.80
2018-02-23T03:09:31.723Z,50.00
2018-02-23T03:11:59.472Z,49.80
2018-02-23T03:14:26.447Z,49.80
2018-02-23T03:16:53.427Z,49.80
2018-02-23T03:19:21.171Z,49.60
2018-02-23T03:21:48.151Z,49.50
2018-02-23T03:24:15.905Z,49.70
2018-02-23T03:26:42.939Z,49.70
2018-02-23T03:29:09.921Z,49.60
2018-02-23T03:31:36.896Z,49.80
2018-02-23T03:34:03.869Z,49.70
2018-02-23T03:36:31.689Z,49.60
2018-02-23T03:38:58.755Z,49.60
2018-02-23T03:41:25.827Z,49.70
2018-02-23T03:43:52.802Z,49.90
2018-02-23T03:46:19.779Z,49.90
2018-02-23T03:48:47.612Z,50.30
2018-02-23T03:51:14.667Z,50.30
2018-02-23T03:53:41.640Z,49.90
2018-02-23T03:56:08.688Z,50.30
2018-02-23T03:58:35.658Z,50.20
2018-02-23T04:01:02.703Z,50.30
2018-02-23T04:03:29.759Z,50.50
2018-02-23T04:05:56.826Z,50.40
2018-02-23T04:08:23.887Z,50.30
2018-02-23T04:10:50.943Z,50.20
2018-02-23T04:13:17.910Z,50.50
2018-02-23T04:15:44.895Z,50.10
2018-02-23T04:18:11.930Z,49.90
2018-02-23T04:20:38.915Z,49.90
2018-02-23T04:23:05.886Z,50.00
2018-02-23T04:25:33.631Z,49.90
2018-02-23T04:28:00.607Z,49.90
2018-02-23T04:30:27.635Z,49.80
2018-02-23T04:32:54.615Z,50.10
2018-02-23T04:35:21.647Z,50.00
2018-02-23T04:37:48.708Z,50.00
2018-02-23T04:40:15.680Z,50.20
2018-02-23T04:42:42.666Z,50.10
2018-02-23T04:45:09.635Z,50.00
2018-02-23T04:47:37.396Z,49.60
2018-02-23T04:50:04.411Z,49.60
2018-02-23T04:52:31.403Z,49.60
2018-02-23T04:54:58.507Z,49.70
2018-02-23T04:57:25.599Z,49.40
2018-02-23T04:59:52.571Z,49.70
2018-02-23T05:02:19.723Z,49.50
2018-02-23T05:04:46.698Z,49.30
2018-02-23T05:07:13.684Z,49.40
2018-02-23T05:09:40.651Z,49.40
2018-02-23T05:12:08.475Z,49.10
2018-02-23T05:14:35.446Z,49.00
2018-02-23T05:17:02.492Z,49.10
2018-02-23T05:19:29.468Z,49.20
2018-02-23T05:21:56.450Z,49.20
2018-02-23T05:24:23.423Z,49.10
2018-02-23T05:26:51.167Z,49.10
2018-02-23T05:29:18.139Z,49.00
2018-02-23T05:31:45.158Z,48.70
2018-02-23T05:34:12.131Z,48.50
2018-02-23T05:36:39.177Z,48.70
2018-02-23T05:39:06.149Z,48.20
2018-02-23T05:41:33.196Z,48.10
2018-02-23T05:44:00.173Z,48.00
2018-02-23T05:46:27.151Z,48.10
2018-02-23T05:48:54.181Z,47.90
2018-02-23T05:51:21.156Z,47.90
2018-02-23T05:53:48.127Z,47.40
2018-02-23T05:56:15.117Z,47.40
2018-02-23T05:58:42.107Z,47.20
2018-02-23T06:01:09.087Z,47.20
2018-02-23T06:03:36.059Z,47.20
2018-02-23T06:06:03.807Z,47.10
2018-02-23T06:08:30.864Z,47.10
2018-02-23T06:10:57.847Z,47.10
2018-02-23T06:13:24.874Z,47.20
2018-02-23T06:15:57.588Z,47.00
2018-02-23T06:18:30.367Z,47.10
2018-02-23T06:20:57.356Z,47.10
2018-02-23T06:23:24.327Z,47.10
2018-02-23T06:25:52.154Z,47.40
2018-02-23T06:28:19.139Z,47.30
2018-02-23T06:30:46.115Z,47.20
2018-02-23T06:33:13.139Z,47.10
2018-02-23T06:35:40.119Z,47.10
2018-02-23T06:38:07.105Z,47.10
2018-02-23T06:40:34.842Z,47.10
2018-02-23T06:43:01.832Z,47.10
2018-02-23T06:45:29.576Z,47.50
2018-02-23T06:47:56.554Z,47.20
2018-02-23T06:50:23.530Z,46.90
2018-02-23T06:52:51.274Z,46.80
2018-02-23T06:55:18.247Z,46.80
2018-02-23T06:57:45.231Z,46.70
2018-02-23T07:00:13.051Z,47.00
2018-02-23T07:02:40.115Z,47.00
2018-02-23T07:05:07.079Z,46.50
2018-02-23T07:07:34.127Z,46.70
2018-02-23T07:10:01.103Z,46.40
2018-02-23T07:12:28.146Z,46.40
2018-02-23T07:14:55.119Z,46.20
2018-02-23T07:17:22.104Z,46.30
2018-02-23T07:19:49.080Z,45.90
2018-02-23T07:22:16.875Z,45.40
2018-02-23T07:24:43.799Z,45.40
2018-02-23T07:27:10.819Z,45.20
2018-02-23T07:29:37.872Z,45.00
2018-02-23T07:32:04.935Z,45.10
2018-02-23T07:34:31.907Z,45.00
2018-02-23T07:36:58.892Z,44.90
2018-02-23T07:39:25.869Z,44.80
2018-02-23T07:41:53.687Z,44.40
2018-02-23T07:44:20.667Z,44.30
2018-02-23T07:46:47.647Z,44.10
2018-02-23T07:49:14.627Z,44.20
2018-02-23T07:51:41.594Z,44.50
2018-02-23T07:54:08.591Z,44.00
2018-02-23T07:56:35.560Z,43.90
2018-02-23T07:59:02.544Z,43.70
2018-02-23T08:01:30.284Z,43.90
2018-02-23T08:03:57.263Z,43.30
2018-02-23T08:06:24.234Z,43.30
2018-02-23T08:08:51.255Z,43.30
2018-02-23T08:11:18.309Z,42.90
2018-02-23T08:13:45.279Z,42.70
2018-02-23T08:16:12.259Z,42.80
2018-02-23T08:18:39.282Z,42.60
2018-02-23T08:21:06.338Z,42.90
2018-02-23T08:23:33.303Z,42.70
2018-02-23T08:26:00.366Z,42.90
2018-02-23T08:28:27.418Z,42.80
2018-02-23T08:30:54.400Z,42.60
2018-02-23T08:33:22.179Z,42.40
2018-02-23T08:35:49.223Z,42.20
2018-02-23T08:38:16.275Z,42.30
2018-02-23T08:40:43.268Z,41.70
2018-02-23T08:43:10.294Z,41.80
2018-02-23T08:45:37.282Z,41.90
2018-02-23T08:48:04.255Z,42.40
2018-02-23T08:50:31.278Z,41.40
2018-02-23T08:52:58.252Z,42.10
2018-02-23T08:55:25.215Z,41.40
2018-02-23T08:57:52.247Z,41.40
2018-02-23T09:00:19.291Z,41.40
2018-02-23T09:02:46.362Z,41.40
2018-02-23T09:05:13.336Z,41.60
2018-02-23T09:07:40.307Z,41.80
2018-02-23T09:10:07.343Z,41.50
2018-02-23T09:12:34.335Z,41.30
2018-02-23T09:15:01.295Z,41.20
2018-02-23T09:17:28.272Z,41.30
2018-02-23T09:19:56.091Z,41.40
2018-02-23T09:22:23.072Z,41.40
2018-02-23T09:24:50.119Z,41.20
2018-02-23T09:27:17.225Z,41.20
2018-02-23T09:29:44.145Z,41.70
2018-02-23T09:32:17.139Z,40.90
2018-02-23T09:34:44.191Z,41.00
2018-02-23T09:37:11.268Z,41.10
2018-02-23T09:39:38.218Z,40.60
2018-02-23T09:42:05.268Z,40.40
2018-02-23T09:44:32.235Z,40.00
2018-02-23T09:46:59.216Z,39.70
2018-02-23T09:49:26.239Z,39.40
2018-02-23T09:51:53.223Z,39.30
2018-02-23T09:54:20.266Z,39.60
2018-02-23T09:56:47.244Z,39.00
2018-02-23T09:59:14.206Z,38.40
2018-02-23T10:01:41.187Z,38.20
2018-02-23T10:04:09.010Z,37.40
2018-02-23T10:06:36.070Z,37.30
2018-02-23T10:09:03.130Z,37.50
2018-02-23T10:11:30.201Z,37.40
2018-02-23T10:13:57.171Z,37.20
2018-02-23T10:16:24.220Z,36.50
2018-02-23T10:18:51.203Z,36.40
2018-02-23T10:21:18.176Z,35.90
2018-02-23T10:23:45.155Z,35.90
2018-02-23T10:26:12.949Z,35.10
2018-02-23T10:28:40.672Z,34.90
2018-02-23T10:31:07.648Z,34.90
2018-02-23T10:33:35.395Z,35.00
2018-02-23T10:36:02.449Z,34.50
2018-02-23T10:38:30.296Z,34.10
2018-02-23T10:40:57.260Z,33.70
2018-02-23T10:43:24.239Z,32.80
2018-02-23T10:45:51.207Z,31.80
2018-02-23T10:48:18.194Z,29.10
2018-02-23T10:50:45.163Z,24.90
2018-02-23T10:53:12.991Z,20.40
2018-02-23T10:55:39.963Z,20.30
2018-02-23T10:58:06.948Z,21.00
2018-02-23T11:00:33.960Z,20.50
2018-02-23T11:03:00.942Z,18.70
2018-02-23T11:05:27.916Z,17.50
2018-02-23T11:07:54.976Z,16.30
2018-02-23T11:10:21.911Z,15.90
2018-02-23T11:12:48.895Z,15.80
2018-02-23T11:15:15.874Z,17.10
2018-02-23T11:17:43.695Z,20.60
2018-02-23T11:20:10.675Z,20.50
2018-02-23T11:22:37.707Z,23.00
2018-02-23T11:25:04.675Z,24.30
2018-02-23T11:27:31.727Z,25.60
2018-02-23T11:29:58.699Z,26.20
2018-02-23T11:32:25.747Z,26.90
2018-02-23T11:34:52.726Z,27.20
2018-02-23T11:37:19.715Z,27.80
2018-02-23T11:39:47.452Z,27.70
2018-02-23T11:42:14.427Z,27.60
2018-02-23T11:44:41.663Z,27.40
2018-02-23T11:47:08.715Z,27.50
2018-02-23T11:49:35.875Z,27.50
2018-02-23T11:52:02.846Z,27.60
2018-02-23T11:54:29.820Z,27.90
2018-02-23T11:56:56.795Z,27.20
2018-02-23T11:59:23.820Z,27.40
2018-02-23T12:01:50.791Z,27.10
2018-02-23T12:04:17.771Z,27.10
2018-02-23T12:06:44.745Z,26.70
2018-02-23T12:09:12.575Z,26.10
2018-02-23T12:11:39.535Z,26.10
2018-02-23T12:14:06.578Z,26.70
2018-02-23T12:16:33.643Z,26.40
2018-02-23T12:19:00.619Z,26.00
2018-02-23T12:21:27.647Z,26.50
2018-02-23T12:23:54.563Z,33.10
2018-02-23T12:26:21.540Z,29.30
2018-02-23T12:28:49.354Z,24.40
2018-02-23T12:31:16.326Z,24.30
2018-02-23T12:33:43.302Z,23.90
2018-02-23T12:36:10.280Z,24.00
2018-02-23T12:38:38.116Z,24.60
2018-02-23T12:41:05.078Z,23.90
2018-02-23T12:43:32.055Z,23.40
2018-02-23T12:45:59.101Z,22.30
2018-02-23T12:48:26.075Z,20.50
2018-02-23T12:50:53.060Z,18.90
2018-02-23T12:53:20.800Z,15.30
2018-02-23T12:55:47.843Z,15.20
2018-02-23T12:58:14.819Z,14.70
2018-02-23T13:00:41.863Z,13.90
2018-02-23T13:03:08.915Z,13.70
2018-02-23T13:05:35.979Z,13.50
2018-02-23T13:08:03.471Z,13.10
2018-02-23T13:10:31.963Z,13.40
2018-02-23T13:12:58.940Z,13.30
2018-02-23T13:15:25.927Z,13.00
2018-02-23T13:17:52.913Z,13.10
2018-02-23T13:20:19.890Z,12.50
2018-02-23T13:22:46.871Z,12.50
2018-02-23T13:25:13.851Z,12.50
2018-02-23T13:27:41.695Z,12.80
2018-02-23T13:30:08.728Z,12.80
2018-02-23T13:32:35.708Z,13.10
2018-02-23T13:35:02.687Z,13.10
2018-02-23T13:37:30.524Z,12.70
2018-02-23T13:39:57.502Z,12.50
2018-02-23T13:42:24.475Z,12.50
2018-02-23T13:44:51.463Z,12.70
2018-02-23T13:47:19.195Z,12.90
2018-02-23T13:49:46.184Z,12.90
2018-02-23T13:52:14.014Z,13.00
2018-02-23T13:54:41.741Z,13.00
2018-02-23T13:57:09.475Z,12.70
2018-02-23T13:59:36.464Z,12.60
2018-02-23T14:02:03.431Z,12.90
2018-02-23T14:04:31.174Z,12.90
2018-02-23T14:07:04.039Z,12.90
2018-02-23T14:09:31.112Z,13.10
2018-02-23T14:11:58.174Z,13.50
2018-02-23T14:14:25.152Z,13.30
2018-02-23T14:16:52.126Z,13.60
2018-02-23T14:19:19.156Z,13.60
2018-02-23T14:21:46.127Z,13.80
2018-02-23T14:24:13.112Z,14.10
2018-02-23T14:26:40.127Z,14.40
2018-02-23T14:29:07.107Z,14.80
2018-02-23T14:31:34.079Z,15.50
2018-02-23T14:34:01.067Z,15.60
2018-02-23T14:36:28.043Z,16.70
2018-02-23T14:38:55.015Z,17.40
2018-02-23T14:41:21.999Z,18.30
2018-02-23T14:43:49.035Z,19.60
2018-02-23T14:46:16.099Z,19.80
2018-02-23T14:48:49.010Z,20.00
2018-02-23T14:51:15.990Z,20.30
2018-02-23T14:53:42.956Z,21.90
2018-02-23T14:56:10.895Z,23.30
2018-02-23T14:58:37.862Z,23.30
2018-02-23T15:01:04.844Z,24.20
2018-02-23T15:03:31.867Z,24.90
2018-02-23T15:05:58.843Z,25.40
2018-02-23T15:08:25.888Z,25.60
2018-02-23T15:10:52.863Z,26.40
2018-02-23T15:13:19.834Z,26.70
2018-02-23T15:15:46.871Z,27.20
2018-02-23T15:18:13.924Z,27.40
2018-02-23T15:20:40.991Z,27.30
2018-02-23T15:23:07.964Z,27.40
2018-02-23T15:25:34.994Z,27.70
2018-02-23T15:28:01.966Z,27.70
2018-02-23T15:30:34.851Z,27.90
2018-02-23T15:33:01.913Z,28.20
2018-02-23T15:35:28.878Z,28.30
2018-02-23T15:37:55.931Z,28.70
2018-02-23T15:40:22.997Z,28.90
2018-02-23T15:42:49.967Z,28.90
2018-02-23T15:45:16.939Z,29.10
2018-02-23T15:47:49.755Z,29.10
2018-02-23T15:50:36.203Z,29.80
2018-02-23T15:53:03.167Z,29.80
2018-02-23T15:55:30.180Z,29.70
2018-02-23T15:58:12.903Z,30.00
2018-02-23T16:00:39.878Z,30.00
2018-02-23T16:03:07.611Z,30.60
2018-02-23T16:05:34.591Z,30.50
2018-02-23T16:08:01.576Z,30.40
2018-02-23T16:10:28.589Z,30.60
2018-02-23T16:12:56.278Z,30.80
2018-02-23T16:15:23.258Z,30.70
2018-02-23T16:17:50.987Z,31.50
2018-02-23T16:20:17.962Z,31.00
2018-02-23T16:22:44.936Z,31.40
2018-02-23T16:25:11.914Z,31.30
2018-02-23T16:27:39.656Z,31.50
2018-02-23T16:30:06.691Z,31.50
2018-02-23T16:32:33.750Z,31.40
2018-02-23T16:35:00.727Z,31.30
2018-02-23T16:37:27.775Z,32.00
2018-02-23T16:39:54.847Z,32.10
2018-02-23T16:42:21.895Z,31.70
2018-02-23T16:44:48.866Z,31.90
2018-02-23T16:47:15.919Z,32.10
2018-02-23T16:49:42.891Z,32.00
2018-02-23T16:52:09.931Z,32.50
2018-02-23T16:54:36.924Z,32.30
2018-02-23T16:57:03.887Z,32.10
2018-02-23T16:59:30.859Z,32.10
2018-02-23T17:01:58.596Z,32.10
2018-02-23T17:04:25.648Z,32.10
2018-02-23T17:06:52.615Z,31.90
2018-02-23T17:09:19.584Z,32.30
2018-02-23T17:11:46.559Z,32.50
2018-02-23T17:14:13.527Z,32.70
2018-02-23T17:16:41.277Z,32.80
2018-02-23T17:19:08.251Z,32.80
2018-02-23T17:21:35.227Z,33.20
2018-02-23T17:24:02.989Z,33.40
2018-02-23T17:26:29.933Z,33.40
2018-02-23T17:28:56.960Z,33.30
2018-02-23T17:31:23.939Z,33.50
2018-02-23T17:33:50.982Z,33.40
2018-02-23T17:36:17.959Z,33.30
2018-02-23T17:38:44.926Z,33.20
2018-02-23T17:41:11.936Z,33.40
2018-02-23T17:43:38.891Z,33.50
2018-02-23T17:46:05.872Z,33.80
2018-02-23T17:48:32.844Z,34.10
2018-02-23T17:50:59.823Z,34.20
2018-02-23T17:53:27.555Z,34.80
2018-02-23T17:55:54.618Z,34.80
2018-02-23T17:58:21.636Z,34.30
2018-02-23T18:00:48.643Z,34.30
2018-02-23T18:03:15.715Z,34.80
2018-02-23T18:05:42.691Z,35.10
2018-02-23T18:08:10.445Z,35.30
2018-02-23T18:10:37.415Z,35.30
2018-02-23T18:13:04.391Z,35.40
2018-02-23T18:15:31.359Z,35.30
2018-02-23T18:17:59.107Z,35.30
2018-02-23T18:20:26.071Z,35.30
2018-02-23T18:22:53.052Z,35.30
2018-02-23T18:25:20.803Z,35.50
2018-02-23T18:27:47.943Z,35.50
2018-02-23T18:30:14.913Z,35.50
2018-02-23T18:32:41.896Z,36.00
2018-02-23T18:35:08.860Z,35.80
2018-02-23T18:37:35.839Z,35.90
2018-02-23T18:40:02.811Z,35.70
2018-02-23T18:42:29.783Z,35.90
2018-02-23T18:44:56.768Z,36.10
2018-02-23T18:47:23.817Z,36.00
2018-02-23T18:49:50.867Z,36.00
2018-02-23T18:52:17.922Z,36.60
2018-02-23T18:54:44.991Z,36.70
2018-02-23T18:57:11.976Z,36.50
2018-02-23T18:59:38.950Z,36.60
2018-02-23T19:02:06.707Z,36.90
2018-02-23T19:04:33.679Z,36.80
2018-02-23T19:07:00.642Z,37.10
2018-02-23T19:09:28.383Z,37.50
2018-02-23T19:11:55.355Z,37.30
2018-02-23T19:14:22.331Z,37.50
2018-02-23T19:16:49.319Z,37.70
2018-02-23T19:19:16.308Z,37.90
2018-02-23T19:21:43.271Z,38.10
2018-02-23T19:24:10.329Z,37.80
2018-02-23T19:26:37.290Z,38.10
2018-02-23T19:29:04.266Z,38.40
2018-02-23T19:31:31.308Z,38.80
2018-02-23T19:33:58.277Z,38.80
2018-02-23T19:36:25.315Z,39.00
2018-02-23T19:38:52.287Z,39.10
2018-02-23T19:41:19.334Z,39.30
2018-02-23T19:43:46.395Z,39.40
2018-02-23T19:46:13.374Z,39.40
2018-02-23T19:48:40.423Z,39.40
2018-02-23T19:51:07.403Z,39.50
2018-02-23T19:53:34.370Z,39.80
2018-02-23T19:56:01.387Z,39.80
2018-02-23T19:58:28.354Z,40.60
2018-02-23T20:00:55.336Z,39.80
2018-02-23T20:03:22.298Z,39.90
2018-02-23T20:05:49.279Z,40.00
2018-02-23T20:08:17.047Z,40.20
2018-02-23T20:10:43.994Z,40.20
2018-02-23T20:13:11.115Z,40.30
2018-02-23T20:15:38.093Z,40.30
2018-02-23T20:18:05.142Z,40.70
2018-02-23T20:20:32.106Z,40.70
2018-02-23T20:22:59.151Z,40.70
2018-02-23T20:25:26.214Z,40.70
2018-02-23T20:27:53.200Z,40.70
2018-02-23T20:30:20.236Z,41.00
2018-02-23T20:32:47.290Z,41.10
2018-02-23T20:35:14.262Z,41.10
2018-02-23T20:37:41.310Z,41.20
2018-02-23T20:40:08.288Z,41.30
2018-02-23T20:42:35.268Z,41.30
2018-02-23T20:45:03.748Z,41.50
2018-02-23T20:47:30.719Z,41.50
2018-02-23T20:49:57.736Z,41.60
2018-02-23T20:52:24.717Z,41.70
2018-02-23T20:54:51.679Z,41.80
2018-02-23T20:57:18.661Z,41.90
2018-02-23T20:59:45.627Z,42.00
2018-02-23T21:02:13.379Z,42.20
2018-02-23T21:04:40.346Z,42.20
2018-02-23T21:07:07.364Z,42.10
2018-02-23T21:09:34.335Z,42.20
2018-02-23T21:12:01.388Z,42.50
2018-02-23T21:14:28.445Z,42.60
2018-02-23T21:16:55.419Z,42.50
2018-02-23T21:19:22.387Z,42.60
2018-02-23T21:21:49.415Z,42.70
2018-02-23T21:24:16.382Z,42.80
2018-02-23T21:26:43.355Z,42.90
2018-02-23T21:29:10.390Z,43.10
2018-02-23T21:31:37.450Z,43.00
2018-02-23T21:34:04.516Z,43.10
2018-02-23T21:36:31.575Z,43.40
2018-02-23T21:38:58.544Z,43.20
2018-02-23T21:41:25.523Z,43.20
2018-02-23T21:43:52.495Z,43.20
2018-02-23T21:46:19.525Z,43.30
2018-02-23T21:48:46.572Z,43.20
2018-02-23T21:51:13.555Z,43.20
2018-02-23T21:53:40.582Z,43.40
2018-02-23T21:56:07.647Z,43.50
2018-02-23T21:58:34.619Z,43.30
2018-02-23T22:01:01.669Z,43.40
2018-02-23T22:03:28.635Z,43.50
2018-02-23T22:05:55.602Z,43.80
2018-02-23T22:08:22.610Z,43.40
2018-02-23T22:10:49.586Z,43.40
2018-02-23T22:13:16.558Z,43.80
2018-02-23T22:15:43.623Z,43.60
2018-02-23T22:18:10.607Z,43.50
2018-02-23T22:20:37.631Z,43.80
2018-02-23T22:23:04.607Z,43.80
2018-02-23T22:25:31.579Z,43.60
2018-02-23T22:27:58.559Z,43.70
2018-02-23T22:30:26.295Z,43.70
2018-02-23T22:32:53.271Z,43.60
2018-02-23T22:35:20.308Z,43.50
2018-02-23T22:37:47.283Z,43.70
2018-02-23T22:40:14.322Z,43.70
2018-02-23T22:42:41.299Z,43.70
2018-02-23T22:45:08.263Z,43.90
2018-02-23T22:47:35.243Z,43.70
2018-02-23T22:50:02.979Z,43.70
2018-02-23T22:52:29.967Z,43.60
2018-02-23T22:54:56.991Z,44.00
2018-02-23T22:57:23.975Z,43.60
2018-02-23T22:59:51.010Z,43.90
2018-02-23T23:02:17.987Z,43.70
2018-02-23T23:04:44.963Z,43.80
2018-02-23T23:07:13.755Z,44.10
2018-02-23T23:09:40.783Z,43.90
2018-02-23T23:12:07.850Z,43.70
2018-02-23T23:14:34.823Z,43.70
2018-02-23T23:17:01.863Z,43.90
2018-02-23T23:19:28.835Z,44.00
2018-02-23T23:21:55.884Z,43.90
2018-02-23T23:24:22.855Z,43.70
2018-02-23T23:26:49.848Z,43.70
2018-02-23T23:29:17.584Z,43.70
2018-02-23T23:31:44.580Z,43.60
2018-02-23T23:34:12.416Z,43.70
2018-02-23T23:36:39.395Z,43.70
2018-02-23T23:39:06.367Z,43.80
2018-02-23T23:41:33.346Z,43.70
2018-02-23T23:44:01.094Z,43.70
2018-02-23T23:46:28.075Z,43.60
2018-02-23T23:48:55.903Z,43.90
2018-02-23T23:51:22.874Z,43.80
2018-02-23T23:53:49.855Z,43.50
2018-02-23T23:56:16.828Z,43.90
2018-02-23T23:58:44.650Z,43.70
